Christian Reinauer — WDA6472 — position and weather

sailwx.info

Track history (hours):
 
Tides and Currents Weather Stations Pressure Air Temp Water Temp Dewpoint Dewpoint Depression Visibility Wind Speed Wind Dir Waves Ship Positions

Christian Reinauer

Owner: REINAUER TRANSPORTATION CO LLC, STATEN ISLAND, NY. More information available from US FCC via Universal Licensing System and Coast Guard Vessel Documentation Center.

Last reported at 2018-Feb-24 03:59 UTC. Time now 2018-Feb-24 04:04 UTC.
Position N 40°34' W 074°13'.

Length 172 m; draft 6.4 m.

Type: Tug. MMSI: 366832740.

Date/timePositionNaut miles runAvg speedWind from/ knotsBaromVisibWave heightAir tempDewpointWater temp
2018-Feb-24 03:59N 40°34' W 074°13'4 8.9
2018-Feb-24 03:30N 40°38' W 074°12'3 6.0
2018-Feb-24 03:00N 40°38' W 074°08'0 0.0
2018-Feb-24 02:30N 40°38' W 074°08'0 0.0
2018-Feb-24 02:00N 40°38' W 074°08'0 0.0
2018-Feb-24 01:30N 40°38' W 074°08'0 0.0
2018-Feb-24 01:00N 40°38' W 074°08'0 0.0
2018-Feb-24 00:30N 40°38' W 074°08'0 0.0
2018-Feb-24 00:00N 40°38' W 074°08'0 0.0
2018-Feb-23 23:30N 40°38' W 074°08'0 0.0
2018-Feb-23 22:59N 40°38' W 074°08'0 0.0
2018-Feb-23 22:29N 40°38' W 074°08'0 0.0
2018-Feb-23 21:56N 40°38' W 074°08'0 0.0
2018-Feb-23 21:26N 40°38' W 074°08'1 1.7
2018-Feb-23 21:01N 40°39' W 074°07'4 8.0
2018-Feb-23 20:30N 40°40' W 074°02'0 0.1
2018-Feb-23 20:00N 40°40' W 074°02'0 0.0
2018-Feb-23 19:30N 40°40' W 074°02'0 0.0
2018-Feb-23 19:00N 40°40' W 074°02'0 0.0
2018-Feb-23 18:30N 40°40' W 074°02'0 0.1
2018-Feb-23 18:00N 40°40' W 074°02'0 0.1
2018-Feb-23 17:30N 40°40' W 074°02'0 0.1
2018-Feb-23 17:00N 40°40' W 074°02'0 0.1
2018-Feb-23 16:30N 40°40' W 074°02'2 3.1
2018-Feb-23 16:00N 40°39' W 074°04'2 2.9
2018-Feb-23 15:12N 40°39' W 074°07'0 0.0
2018-Feb-23 14:57N 40°39' W 074°07'0 0.0
2018-Feb-23 14:27N 40°39' W 074°07'0 0.0
2018-Feb-23 13:57N 40°39' W 074°07'0 0.0
2018-Feb-23 13:30N 40°39' W 074°07'0 0.0
2018-Feb-23 13:00N 40°39' W 074°07'0 0.0
2018-Feb-23 12:30N 40°39' W 074°07'1 1.9
2018-Feb-23 11:58N 40°38' W 074°08'0 0.0
2018-Feb-23 11:28N 40°38' W 074°08'0 0.0
2018-Feb-23 10:58N 40°38' W 074°08'0 0.0
2018-Feb-23 10:28N 40°38' W 074°08'0 0.0
2018-Feb-23 09:58N 40°38' W 074°08'0 0.0
2018-Feb-23 09:28N 40°38' W 074°08'0 0.0
2018-Feb-23 08:58N 40°38' W 074°08'0 0.0
2018-Feb-23 08:28N 40°38' W 074°08'0 0.0
2018-Feb-23 07:58N 40°38' W 074°08'0 0.0
2018-Feb-23 07:28N 40°38' W 074°08'0 0.0
2018-Feb-23 06:58N 40°38' W 074°08'0 0.0
2018-Feb-23 06:30N 40°38' W 074°08'3 5.8
2018-Feb-23 06:00N 40°38' W 074°11'4 8.1
2018-Feb-23 05:30N 40°34' W 074°13'3 2.4
2018-Feb-23 04:18N 40°32' W 074°15'1 1.5
2018-Feb-23 03:54N 40°33' W 074°15'3 7.3
2018-Feb-23 03:28N 40°35' W 074°12'3 6.9
2018-Feb-23 03:00N 40°39' W 074°11'5 9.2
2018-Feb-23 02:29N 40°39' W 074°05'510.4
2018-Feb-23 02:00N 40°42' W 073°60'510.4
2018-Feb-23 01:29N 40°47' W 073°56'510.2
2018-Feb-23 01:00N 40°48' W 073°50'5 9.5
2018-Feb-23 00:30N 40°51' W 073°45'611.2
2018-Feb-22 23:59N 40°55' W 073°39'5 0.1
2018-Feb-21 07:48N 40°52' W 073°45'411.0
2018-Feb-21 07:28N 40°49' W 073°47'4 9.2
2018-Feb-21 07:00N 40°48' W 073°53'4 7.5
2018-Feb-21 06:29N 40°46' W 073°57'510.3
2018-Feb-21 06:00N 40°42' W 074°00'3 6.1
2018-Feb-21 05:30N 40°40' W 074°03'3 6.4
2018-Feb-21 05:00N 40°39' W 074°07'4 7.7
2018-Feb-21 04:30N 40°38' W 074°12'3 5.8
2018-Feb-21 04:00N 40°35' W 074°13'3 6.5
2018-Feb-21 03:30N 40°32' W 074°15'0 0.0
2018-Feb-21 02:53N 40°32' W 074°15'0 0.0
2018-Feb-21 02:26N 40°32' W 074°15'0 0.0
2018-Feb-21 01:59N 40°32' W 074°15'0 0.0
2018-Feb-21 01:23N 40°32' W 074°15'0 0.0
2018-Feb-20 23:59N 40°32' W 074°15'0 0.0
2018-Feb-20 23:11N 40°32' W 074°15'0 0.0
2018-Feb-20 22:59N 40°32' W 074°15'0 0.0
2018-Feb-20 22:29N 40°32' W 074°15'0 0.0
2018-Feb-20 21:35N 40°32' W 074°15'0 0.0
2018-Feb-20 21:17N 40°32' W 074°15'0 0.0
2018-Feb-20 20:56N 40°32' W 074°15'0 0.0
2018-Feb-20 20:29N 40°32' W 074°15'0 0.0
2018-Feb-20 19:29N 40°32' W 074°15'0 0.0
2018-Feb-20 18:59N 40°32' W 074°15'0 0.0
2018-Feb-20 18:23N 40°32' W 074°15'0 0.0
2018-Feb-20 18:00N 40°32' W 074°15'0 0.0
2018-Feb-20 17:30N 40°32' W 074°15'0 0.0
2018-Feb-20 17:00N 40°32' W 074°15'0 0.0
2018-Feb-20 16:30N 40°32' W 074°15'0 0.0
2018-Feb-20 16:00N 40°32' W 074°15'0 0.0
2018-Feb-20 15:30N 40°32' W 074°15'0 0.0
2018-Feb-20 15:00N 40°32' W 074°15'0 0.0
2018-Feb-20 14:30N 40°32' W 074°15'0 0.0
2018-Feb-20 13:58N 40°32' W 074°15'0 0.0
2018-Feb-20 04:02N 40°32' W 074°15'0 0.0
2018-Feb-20 04:00N 40°32' W 074°15'0 0.0
2018-Feb-19 23:42N 40°32' W 074°15'0 0.0
2018-Feb-19 23:15N 40°32' W 074°15'0 0.5
2018-Feb-19 22:59N 40°32' W 074°15'5 5.1
2018-Feb-19 22:04N 40°30' W 074°10'111.6
2018-Feb-19 21:57N 40°30' W 074°08'4 7.8
2018-Feb-19 21:25N 40°31' W 074°03'512.6
2018-Feb-19 21:00N 40°36' W 074°03'612.2
2018-Feb-19 20:30N 40°42' W 074°01'5 9.8
2018-Feb-19 20:00N 40°46' W 073°57'5 9.9
2018-Feb-19 19:30N 40°48' W 073°51'5 9.8
2018-Feb-19 19:00N 40°51' W 073°46'711.4
2018-Feb-19 18:25N 40°55' W 073°39'5212.0
2018-Feb-19 14:07N 41°06' W 072°32'112.4
2018-Feb-19 14:00N 41°06' W 072°30'612.5
2018-Feb-19 13:30N 41°09' W 072°23'612.4
2018-Feb-19 13:00N 41°11' W 072°15'511.1
2018-Feb-19 12:30N 41°13' W 072°08'610.9
2018-Feb-19 11:59N 41°14' W 072°01'3810.0
2018-Feb-19 08:13N 41°35' W 071°19'311.6
2018-Feb-19 07:57N 41°38' W 071°18'511.3
2018-Feb-19 07:28N 41°43' W 071°20'5 9.7
2018-Feb-19 07:00N 41°47' W 071°23'1 2.7
2018-Feb-19 06:30N 41°48' W 071°24'0 0.0
2018-Feb-19 06:00N 41°48' W 071°24'0 0.0
2018-Feb-19 05:29N 41°48' W 071°24'0 0.0
2018-Feb-19 05:00N 41°48' W 071°24'0 0.0
2018-Feb-19 04:30N 41°48' W 071°24'0 0.0
2018-Feb-19 04:00N 41°48' W 071°24'0 0.0
2018-Feb-19 03:30N 41°48' W 071°24'0 0.0
2018-Feb-19 03:00N 41°48' W 071°24'0 0.0
2018-Feb-19 02:30N 41°48' W 071°24'0 0.0
2018-Feb-19 02:00N 41°48' W 071°24'0 0.0
2018-Feb-19 01:30N 41°48' W 071°24'0 0.0
2018-Feb-19 01:00N 41°48' W 071°24'0 0.0
2018-Feb-19 00:30N 41°48' W 071°24'0 0.0
2018-Feb-19 00:00N 41°48' W 071°24'0 0.0
2018-Feb-18 23:31N 41°48' W 071°24'0 0.0
2018-Feb-18 23:00N 41°48' W 071°24'0 0.0
2018-Feb-18 22:29N 41°48' W 071°24'0 0.0
2018-Feb-18 21:59N 41°48' W 071°24'0 0.0
2018-Feb-18 21:30N 41°48' W 071°24'0 0.0
2018-Feb-18 20:59N 41°48' W 071°24'0 0.0
2018-Feb-18 20:30N 41°48' W 071°24'0 0.0
2018-Feb-18 19:59N 41°48' W 071°24'0 0.0
2018-Feb-18 19:30N 41°48' W 071°24'0 0.0
2018-Feb-18 18:58N 41°48' W 071°24'0 0.0
2018-Feb-18 18:29N 41°48' W 071°24'0 0.0
2018-Feb-18 18:00N 41°48' W 071°24'0 0.0
2018-Feb-18 17:30N 41°48' W 071°24'0 0.0
2018-Feb-18 17:00N 41°48' W 071°24'0 0.0
2018-Feb-18 16:30N 41°48' W 071°24'0 0.0
2018-Feb-18 16:00N 41°48' W 071°24'0 0.0
2018-Feb-18 15:30N 41°48' W 071°24'0 0.0
2018-Feb-18 15:00N 41°48' W 071°24'0 0.0
2018-Feb-18 14:30N 41°48' W 071°24'0 0.0
2018-Feb-18 14:00N 41°48' W 071°24'0 0.0
2018-Feb-18 13:29N 41°48' W 071°24'0 0.0
2018-Feb-18 12:59N 41°48' W 071°24'0 0.0
2018-Feb-18 12:30N 41°48' W 071°24'0 0.0
2018-Feb-18 12:00N 41°48' W 071°24'0 0.0
2018-Feb-18 11:30N 41°48' W 071°24'0 0.0
2018-Feb-18 11:00N 41°48' W 071°24'0 0.0
2018-Feb-18 10:30N 41°48' W 071°24'0 0.0
2018-Feb-18 09:58N 41°48' W 071°24'0 0.0
2018-Feb-18 09:30N 41°48' W 071°24'0 0.0
2018-Feb-18 09:00N 41°48' W 071°24'0 0.0
2018-Feb-18 08:30N 41°48' W 071°24'0 0.0
2018-Feb-18 08:00N 41°48' W 071°24'0 0.0
2018-Feb-18 07:30N 41°48' W 071°24'0 0.0
2018-Feb-18 07:00N 41°48' W 071°24'0 0.0
2018-Feb-18 06:31N 41°48' W 071°24'0 0.0
2018-Feb-18 06:00N 41°48' W 071°24'0 0.0
2018-Feb-18 05:30N 41°48' W 071°24'0 0.0
2018-Feb-18 05:00N 41°48' W 071°24'0 0.0
2018-Feb-18 04:30N 41°48' W 071°24'0 0.0
2018-Feb-18 03:59N 41°48' W 071°24'0 0.0
2018-Feb-18 03:20N 41°48' W 071°24'0 0.0
2018-Feb-18 02:49N 41°48' W 071°24'0 0.0
2018-Feb-18 02:27N 41°48' W 071°24'0 0.0
2018-Feb-18 01:40N 41°48' W 071°24'0 0.0
2018-Feb-18 01:30N 41°48' W 071°24'0 0.0
2018-Feb-18 00:59N 41°48' W 071°24'0 0.0
2018-Feb-18 00:30N 41°48' W 071°24'0 0.0
2018-Feb-17 23:57N 41°48' W 071°24'0 0.0
2018-Feb-17 23:29N 41°48' W 071°24'0 0.4
2018-Feb-17 22:59N 41°48' W 071°23'2 3.7
2018-Feb-17 22:30N 41°47' W 071°22'510.4
2018-Feb-17 22:00N 41°42' W 071°19'46 9.7
2018-Feb-17 17:18N 41°14' W 072°07'711.7
2018-Feb-17 16:44N 41°11' W 072°16'311.4
2018-Feb-17 16:29N 41°10' W 072°19'510.6
2018-Feb-17 16:00N 41°09' W 072°25'510.3
2018-Feb-17 15:30N 41°07' W 072°32'510.5
2018-Feb-17 15:00N 41°05' W 072°38'610.9
2018-Feb-17 14:30N 41°03' W 072°45'4611.3
2018-Feb-17 10:27N 40°52' W 073°44'510.4
2018-Feb-17 09:57N 40°48' W 073°48'510.1
2018-Feb-17 09:30N 40°48' W 073°54'4 7.2
2018-Feb-17 09:00N 40°45' W 073°57'3 5.3
2018-Feb-17 08:30N 40°43' W 073°58'2 4.8
2018-Feb-17 08:00N 40°41' W 074°01'3 5.8
2018-Feb-17 07:30N 40°39' W 074°03'3 6.4
2018-Feb-17 07:00N 40°39' W 074°07'3 6.4
2018-Feb-17 06:30N 40°38' W 074°12'3 5.5
2018-Feb-17 06:00N 40°36' W 074°12'3 5.2
2018-Feb-17 05:30N 40°33' W 074°14'1 2.4
2018-Feb-17 05:00N 40°33' W 074°15'0 0.0
2018-Feb-16 18:41N 40°33' W 074°15'0 0.0
2018-Feb-16 18:11N 40°33' W 074°15'0 0.0
2018-Feb-16 17:41N 40°33' W 074°15'0 0.0
2018-Feb-16 15:38N 40°33' W 074°15'0 0.0
2018-Feb-16 15:08N 40°33' W 074°15'0 0.1
2018-Feb-16 15:00N 40°33' W 074°15'1 1.3
2018-Feb-16 14:27N 40°33' W 074°15'3 6.9
2018-Feb-16 14:00N 40°36' W 074°12'3 6.0
2018-Feb-16 13:30N 40°39' W 074°11'4 7.1
2018-Feb-16 12:59N 40°39' W 074°07'0 0.3
2018-Feb-16 12:29N 40°39' W 074°07'0 0.0
2018-Feb-16 11:59N 40°39' W 074°07'0 0.0
2018-Feb-16 11:29N 40°39' W 074°07'0 0.0
2018-Feb-16 10:59N 40°39' W 074°07'0 0.0
2018-Feb-16 10:29N 40°39' W 074°07'0 0.0
2018-Feb-16 09:59N 40°39' W 074°07'0 0.0
2018-Feb-16 09:29N 40°39' W 074°07'0 0.0
2018-Feb-16 08:59N 40°39' W 074°07'0 0.0
2018-Feb-16 08:29N 40°39' W 074°07'0 0.0
2018-Feb-16 07:59N 40°39' W 074°07'0 0.0
2018-Feb-16 07:29N 40°39' W 074°07'0 0.0
2018-Feb-16 06:59N 40°39' W 074°07'0 0.0
2018-Feb-16 06:29N 40°39' W 074°07'0 0.0
2018-Feb-16 05:59N 40°39' W 074°07'0 0.0
2018-Feb-16 05:29N 40°39' W 074°07'0 0.0
2018-Feb-16 04:53N 40°39' W 074°07'0 0.0
2018-Feb-16 04:29N 40°39' W 074°07'0 0.0
2018-Feb-16 03:59N 40°39' W 074°07'0 0.0
2018-Feb-16 03:29N 40°39' W 074°07'0 0.0
2018-Feb-16 02:59N 40°39' W 074°07'0 0.0
2018-Feb-16 02:29N 40°39' W 074°07'0 0.0
2018-Feb-16 01:59N 40°39' W 074°07'0 0.0
2018-Feb-16 01:29N 40°39' W 074°07'0 0.0
2018-Feb-16 00:59N 40°39' W 074°07'0 0.0
2018-Feb-16 00:29N 40°39' W 074°07'0 0.0
2018-Feb-15 23:59N 40°39' W 074°07'0 0.0
2018-Feb-15 23:29N 40°39' W 074°07'0 0.0
2018-Feb-15 22:59N 40°39' W 074°07'0 0.0
2018-Feb-15 22:29N 40°39' W 074°07'0 0.0
2018-Feb-15 21:59N 40°39' W 074°07'0 0.0
2018-Feb-15 21:29N 40°39' W 074°07'0 0.0
2018-Feb-15 20:59N 40°39' W 074°07'1 1.8
2018-Feb-15 20:30N 40°39' W 074°08'2 4.2
2018-Feb-15 19:59N 40°39' W 074°05'3 6.5
2018-Feb-15 19:30N 40°40' W 074°01'0 0.3
2018-Feb-15 19:01N 40°40' W 074°01'3 5.0
2018-Feb-15 18:30N 40°38' W 074°03'3 5.3
2018-Feb-15 18:00N 40°39' W 074°07'0 0.1
2018-Feb-15 17:30N 40°39' W 074°07'0 0.0
2018-Feb-15 17:00N 40°39' W 074°07'0 0.0
2018-Feb-15 16:30N 40°39' W 074°07'0 0.0
2018-Feb-15 16:00N 40°39' W 074°07'0 0.0
2018-Feb-15 15:30N 40°39' W 074°07'0 0.0
2018-Feb-15 15:00N 40°39' W 074°07'0 0.0
2018-Feb-15 14:30N 40°39' W 074°07'0 0.0
2018-Feb-15 13:59N 40°39' W 074°07'0 0.0
2018-Feb-15 13:29N 40°39' W 074°07'0 0.0
2018-Feb-15 12:59N 40°39' W 074°07'0 0.0
2018-Feb-15 12:29N 40°39' W 074°07'0 0.0
2018-Feb-15 11:59N 40°39' W 074°07'0 0.0
2018-Feb-15 11:29N 40°39' W 074°07'0 0.0
2018-Feb-15 10:59N 40°39' W 074°07'0 0.0
2018-Feb-15 10:26N 40°39' W 074°07'0 0.0
2018-Feb-15 09:59N 40°39' W 074°07'0 0.0
2018-Feb-15 09:29N 40°39' W 074°07'0 0.0
2018-Feb-15 08:59N 40°39' W 074°07'0 0.0
2018-Feb-15 08:29N 40°39' W 074°07'0 0.0
2018-Feb-15 07:59N 40°39' W 074°07'0 0.0
2018-Feb-15 07:26N 40°39' W 074°07'0 0.0
2018-Feb-15 06:59N 40°39' W 074°07'0 0.0
2018-Feb-15 06:29N 40°39' W 074°07'0 0.0
2018-Feb-15 05:59N 40°39' W 074°07'0 0.0
2018-Feb-15 05:29N 40°39' W 074°07'0 0.0
2018-Feb-15 04:59N 40°39' W 074°07'0 0.0
2018-Feb-15 04:29N 40°39' W 074°07'0 0.0
2018-Feb-15 03:56N 40°39' W 074°07'0 0.0
2018-Feb-15 03:29N 40°39' W 074°07'0 0.0
2018-Feb-15 02:59N 40°39' W 074°07'0 0.0
2018-Feb-15 02:29N 40°39' W 074°07'0 0.0
2018-Feb-15 01:59N 40°39' W 074°07'0 0.0
2018-Feb-15 01:29N 40°39' W 074°07'0 0.0
2018-Feb-15 00:59N 40°39' W 074°07'1 1.4
2018-Feb-15 00:29N 40°39' W 074°06'1 2.5
2018-Feb-15 00:00N 40°39' W 074°04'0 0.8
2018-Feb-14 23:30N 40°39' W 074°04'1 2.3
2018-Feb-14 23:00N 40°38' W 074°03'2 3.8
2018-Feb-14 22:30N 40°39' W 074°02'2 4.8
2018-Feb-14 22:00N 40°42' W 074°00'3 6.1
2018-Feb-14 21:30N 40°44' W 073°58'4 7.1
2018-Feb-14 21:00N 40°47' W 073°55'4 8.1
2018-Feb-14 20:30N 40°48' W 073°50'4 8.8
2018-Feb-14 19:59N 40°51' W 073°46'510.8
2018-Feb-14 19:30N 40°54' W 073°40'4711.1
2018-Feb-14 15:15N 41°05' W 072°40'612.0
2018-Feb-14 14:46N 41°06' W 072°32'312.5
2018-Feb-14 14:30N 41°08' W 072°28'613.1
2018-Feb-14 14:00N 41°10' W 072°20'612.9
2018-Feb-14 13:30N 41°12' W 072°12'812.8
2018-Feb-14 12:55N 41°14' W 072°02'3510.9
2018-Feb-14 09:43N 41°30' W 071°21'310.1
2018-Feb-14 09:28N 41°32' W 071°20'511.6
2018-Feb-14 09:00N 41°37' W 071°18'511.0
2018-Feb-14 08:30N 41°43' W 071°20'5 9.3
2018-Feb-14 08:00N 41°47' W 071°22'2 3.0
2018-Feb-14 07:30N 41°48' W 071°24'0 0.0
2018-Feb-14 07:00N 41°48' W 071°24'0 0.0
2018-Feb-14 06:30N 41°48' W 071°24'0 0.0
2018-Feb-14 05:57N 41°48' W 071°24'0 0.0
2018-Feb-14 05:27N 41°48' W 071°24'0 0.0
2018-Feb-14 04:57N 41°48' W 071°24'0 0.0
2018-Feb-14 04:27N 41°48' W 071°24'  
Track history (hours):
 
Tides and Currents Weather Stations Pressure Air Temp Water Temp Dewpoint Dewpoint Depression Visibility Wind Speed Wind Dir Waves Ship Positions

Christian Reinauer

Owner: REINAUER TRANSPORTATION CO LLC, STATEN ISLAND, NY. More information available from US FCC via Universal Licensing System and Coast Guard Vessel Documentation Center.

Last reported at 2018-Feb-24 03:59 UTC. Time now 2018-Feb-24 04:04 UTC.
Position N 40°34' W 074°13'.

Length 172 m; draft 6.4 m.

Type: Tug. MMSI: 366832740.

Date/timePositionNaut miles runAvg speedWind from/ knotsBaromVisibWave heightAir tempDewpointWater temp
2018-Feb-24 03:59N 40°34' W 074°13'4 8.9
2018-Feb-24 03:30N 40°38' W 074°12'3 6.0
2018-Feb-24 03:00N 40°38' W 074°08'0 0.0
2018-Feb-24 02:30N 40°38' W 074°08'0 0.0
2018-Feb-24 02:00N 40°38' W 074°08'0 0.0
2018-Feb-24 01:30N 40°38' W 074°08'0 0.0
2018-Feb-24 01:00N 40°38' W 074°08'0 0.0
2018-Feb-24 00:30N 40°38' W 074°08'0 0.0
2018-Feb-24 00:00N 40°38' W 074°08'0 0.0
2018-Feb-23 23:30N 40°38' W 074°08'0 0.0
2018-Feb-23 22:59N 40°38' W 074°08'0 0.0
2018-Feb-23 22:29N 40°38' W 074°08'0 0.0
2018-Feb-23 21:56N 40°38' W 074°08'0 0.0
2018-Feb-23 21:26N 40°38' W 074°08'1 1.7
2018-Feb-23 21:01N 40°39' W 074°07'4 8.0
2018-Feb-23 20:30N 40°40' W 074°02'0 0.1
2018-Feb-23 20:00N 40°40' W 074°02'0 0.0
2018-Feb-23 19:30N 40°40' W 074°02'0 0.0
2018-Feb-23 19:00N 40°40' W 074°02'0 0.0
2018-Feb-23 18:30N 40°40' W 074°02'0 0.1
2018-Feb-23 18:00N 40°40' W 074°02'0 0.1
2018-Feb-23 17:30N 40°40' W 074°02'0 0.1
2018-Feb-23 17:00N 40°40' W 074°02'0 0.1
2018-Feb-23 16:30N 40°40' W 074°02'2 3.1
2018-Feb-23 16:00N 40°39' W 074°04'2 2.9
2018-Feb-23 15:12N 40°39' W 074°07'0 0.0
2018-Feb-23 14:57N 40°39' W 074°07'0 0.0
2018-Feb-23 14:27N 40°39' W 074°07'0 0.0
2018-Feb-23 13:57N 40°39' W 074°07'0 0.0
2018-Feb-23 13:30N 40°39' W 074°07'0 0.0
2018-Feb-23 13:00N 40°39' W 074°07'0 0.0
2018-Feb-23 12:30N 40°39' W 074°07'1 1.9
2018-Feb-23 11:58N 40°38' W 074°08'0 0.0
2018-Feb-23 11:28N 40°38' W 074°08'0 0.0
2018-Feb-23 10:58N 40°38' W 074°08'0 0.0
2018-Feb-23 10:28N 40°38' W 074°08'0 0.0
2018-Feb-23 09:58N 40°38' W 074°08'0 0.0
2018-Feb-23 09:28N 40°38' W 074°08'0 0.0
2018-Feb-23 08:58N 40°38' W 074°08'0 0.0
2018-Feb-23 08:28N 40°38' W 074°08'0 0.0
2018-Feb-23 07:58N 40°38' W 074°08'0 0.0
2018-Feb-23 07:28N 40°38' W 074°08'0 0.0
2018-Feb-23 06:58N 40°38' W 074°08'0 0.0
2018-Feb-23 06:30N 40°38' W 074°08'3 5.8
2018-Feb-23 06:00N 40°38' W 074°11'4 8.1
2018-Feb-23 05:30N 40°34' W 074°13'3 2.4
2018-Feb-23 04:18N 40°32' W 074°15'1 1.5
2018-Feb-23 03:54N 40°33' W 074°15'3 7.3
2018-Feb-23 03:28N 40°35' W 074°12'3 6.9
2018-Feb-23 03:00N 40°39' W 074°11'5 9.2
2018-Feb-23 02:29N 40°39' W 074°05'510.4
2018-Feb-23 02:00N 40°42' W 073°60'510.4
2018-Feb-23 01:29N 40°47' W 073°56'510.2
2018-Feb-23 01:00N 40°48' W 073°50'5 9.5
2018-Feb-23 00:30N 40°51' W 073°45'611.2
2018-Feb-22 23:59N 40°55' W 073°39'5 0.1
2018-Feb-21 07:48N 40°52' W 073°45'411.0
2018-Feb-21 07:28N 40°49' W 073°47'4 9.2
2018-Feb-21 07:00N 40°48' W 073°53'4 7.5
2018-Feb-21 06:29N 40°46' W 073°57'510.3
2018-Feb-21 06:00N 40°42' W 074°00'3 6.1
2018-Feb-21 05:30N 40°40' W 074°03'3 6.4
2018-Feb-21 05:00N 40°39' W 074°07'4 7.7
2018-Feb-21 04:30N 40°38' W 074°12'3 5.8
2018-Feb-21 04:00N 40°35' W 074°13'3 6.5
2018-Feb-21 03:30N 40°32' W 074°15'0 0.0
2018-Feb-21 02:53N 40°32' W 074°15'0 0.0
2018-Feb-21 02:26N 40°32' W 074°15'0 0.0
2018-Feb-21 01:59N 40°32' W 074°15'0 0.0
2018-Feb-21 01:23N 40°32' W 074°15'0 0.0
2018-Feb-20 23:59N 40°32' W 074°15'0 0.0
2018-Feb-20 23:11N 40°32' W 074°15'0 0.0
2018-Feb-20 22:59N 40°32' W 074°15'0 0.0
2018-Feb-20 22:29N 40°32' W 074°15'0 0.0
2018-Feb-20 21:35N 40°32' W 074°15'0 0.0
2018-Feb-20 21:17N 40°32' W 074°15'0 0.0
2018-Feb-20 20:56N 40°32' W 074°15'0 0.0
2018-Feb-20 20:29N 40°32' W 074°15'0 0.0
2018-Feb-20 19:29N 40°32' W 074°15'0 0.0
2018-Feb-20 18:59N 40°32' W 074°15'0 0.0
2018-Feb-20 18:23N 40°32' W 074°15'0 0.0
2018-Feb-20 18:00N 40°32' W 074°15'0 0.0
2018-Feb-20 17:30N 40°32' W 074°15'0 0.0
2018-Feb-20 17:00N 40°32' W 074°15'0 0.0
2018-Feb-20 16:30N 40°32' W 074°15'0 0.0
2018-Feb-20 16:00N 40°32' W 074°15'0 0.0
2018-Feb-20 15:30N 40°32' W 074°15'0 0.0
2018-Feb-20 15:00N 40°32' W 074°15'0 0.0
2018-Feb-20 14:30N 40°32' W 074°15'0 0.0
2018-Feb-20 13:58N 40°32' W 074°15'0 0.0
2018-Feb-20 04:02N 40°32' W 074°15'0 0.0
2018-Feb-20 04:00N 40°32' W 074°15'0 0.0
2018-Feb-19 23:42N 40°32' W 074°15'0 0.0
2018-Feb-19 23:15N 40°32' W 074°15'0 0.5
2018-Feb-19 22:59N 40°32' W 074°15'5 5.1
2018-Feb-19 22:04N 40°30' W 074°10'111.6
2018-Feb-19 21:57N 40°30' W 074°08'4 7.8
2018-Feb-19 21:25N 40°31' W 074°03'512.6
2018-Feb-19 21:00N 40°36' W 074°03'612.2
2018-Feb-19 20:30N 40°42' W 074°01'5 9.8
2018-Feb-19 20:00N 40°46' W 073°57'5 9.9
2018-Feb-19 19:30N 40°48' W 073°51'5 9.8
2018-Feb-19 19:00N 40°51' W 073°46'711.4
2018-Feb-19 18:25N 40°55' W 073°39'5212.0
2018-Feb-19 14:07N 41°06' W 072°32'112.4
2018-Feb-19 14:00N 41°06' W 072°30'612.5
2018-Feb-19 13:30N 41°09' W 072°23'612.4
2018-Feb-19 13:00N 41°11' W 072°15'511.1
2018-Feb-19 12:30N 41°13' W 072°08'610.9
2018-Feb-19 11:59N 41°14' W 072°01'3810.0
2018-Feb-19 08:13N 41°35' W 071°19'311.6
2018-Feb-19 07:57N 41°38' W 071°18'511.3
2018-Feb-19 07:28N 41°43' W 071°20'5 9.7
2018-Feb-19 07:00N 41°47' W 071°23'1 2.7
2018-Feb-19 06:30N 41°48' W 071°24'0 0.0
2018-Feb-19 06:00N 41°48' W 071°24'0 0.0
2018-Feb-19 05:29N 41°48' W 071°24'0 0.0
2018-Feb-19 05:00N 41°48' W 071°24'0 0.0
2018-Feb-19 04:30N 41°48' W 071°24'0 0.0
2018-Feb-19 04:00N 41°48' W 071°24'0 0.0
2018-Feb-19 03:30N 41°48' W 071°24'0 0.0
2018-Feb-19 03:00N 41°48' W 071°24'0 0.0
2018-Feb-19 02:30N 41°48' W 071°24'0 0.0
2018-Feb-19 02:00N 41°48' W 071°24'0 0.0
2018-Feb-19 01:30N 41°48' W 071°24'0 0.0
2018-Feb-19 01:00N 41°48' W 071°24'0 0.0
2018-Feb-19 00:30N 41°48' W 071°24'0 0.0
2018-Feb-19 00:00N 41°48' W 071°24'0 0.0
2018-Feb-18 23:31N 41°48' W 071°24'0 0.0
2018-Feb-18 23:00N 41°48' W 071°24'0 0.0
2018-Feb-18 22:29N 41°48' W 071°24'0 0.0
2018-Feb-18 21:59N 41°48' W 071°24'0 0.0
2018-Feb-18 21:30N 41°48' W 071°24'0 0.0
2018-Feb-18 20:59N 41°48' W 071°24'0 0.0
2018-Feb-18 20:30N 41°48' W 071°24'0 0.0
2018-Feb-18 19:59N 41°48' W 071°24'0 0.0
2018-Feb-18 19:30N 41°48' W 071°24'0 0.0
2018-Feb-18 18:58N 41°48' W 071°24'0 0.0
2018-Feb-18 18:29N 41°48' W 071°24'0 0.0
2018-Feb-18 18:00N 41°48' W 071°24'0 0.0
2018-Feb-18 17:30N 41°48' W 071°24'0 0.0
2018-Feb-18 17:00N 41°48' W 071°24'0 0.0
2018-Feb-18 16:30N 41°48' W 071°24'0 0.0
2018-Feb-18 16:00N 41°48' W 071°24'0 0.0
2018-Feb-18 15:30N 41°48' W 071°24'0 0.0
2018-Feb-18 15:00N 41°48' W 071°24'0 0.0
2018-Feb-18 14:30N 41°48' W 071°24'0 0.0
2018-Feb-18 14:00N 41°48' W 071°24'0 0.0
2018-Feb-18 13:29N 41°48' W 071°24'0 0.0
2018-Feb-18 12:59N 41°48' W 071°24'0 0.0
2018-Feb-18 12:30N 41°48' W 071°24'0 0.0
2018-Feb-18 12:00N 41°48' W 071°24'0 0.0
2018-Feb-18 11:30N 41°48' W 071°24'0 0.0
2018-Feb-18 11:00N 41°48' W 071°24'0 0.0
2018-Feb-18 10:30N 41°48' W 071°24'0 0.0
2018-Feb-18 09:58N 41°48' W 071°24'0 0.0
2018-Feb-18 09:30N 41°48' W 071°24'0 0.0
2018-Feb-18 09:00N 41°48' W 071°24'0 0.0
2018-Feb-18 08:30N 41°48' W 071°24'0 0.0
2018-Feb-18 08:00N 41°48' W 071°24'0 0.0
2018-Feb-18 07:30N 41°48' W 071°24'0 0.0
2018-Feb-18 07:00N 41°48' W 071°24'0 0.0
2018-Feb-18 06:31N 41°48' W 071°24'0 0.0
2018-Feb-18 06:00N 41°48' W 071°24'0 0.0
2018-Feb-18 05:30N 41°48' W 071°24'0 0.0
2018-Feb-18 05:00N 41°48' W 071°24'0 0.0
2018-Feb-18 04:30N 41°48' W 071°24'0 0.0
2018-Feb-18 03:59N 41°48' W 071°24'0 0.0
2018-Feb-18 03:20N 41°48' W 071°24'0 0.0
2018-Feb-18 02:49N 41°48' W 071°24'0 0.0
2018-Feb-18 02:27N 41°48' W 071°24'0 0.0
2018-Feb-18 01:40N 41°48' W 071°24'0 0.0
2018-Feb-18 01:30N 41°48' W 071°24'0 0.0
2018-Feb-18 00:59N 41°48' W 071°24'0 0.0
2018-Feb-18 00:30N 41°48' W 071°24'0 0.0
2018-Feb-17 23:57N 41°48' W 071°24'0 0.0
2018-Feb-17 23:29N 41°48' W 071°24'0 0.4
2018-Feb-17 22:59N 41°48' W 071°23'2 3.7
2018-Feb-17 22:30N 41°47' W 071°22'510.4
2018-Feb-17 22:00N 41°42' W 071°19'46 9.7
2018-Feb-17 17:18N 41°14' W 072°07'711.7
2018-Feb-17 16:44N 41°11' W 072°16'311.4
2018-Feb-17 16:29N 41°10' W 072°19'510.6
2018-Feb-17 16:00N 41°09' W 072°25'510.3
2018-Feb-17 15:30N 41°07' W 072°32'510.5
2018-Feb-17 15:00N 41°05' W 072°38'610.9
2018-Feb-17 14:30N 41°03' W 072°45'4611.3
2018-Feb-17 10:27N 40°52' W 073°44'510.4
2018-Feb-17 09:57N 40°48' W 073°48'510.1
2018-Feb-17 09:30N 40°48' W 073°54'4 7.2
2018-Feb-17 09:00N 40°45' W 073°57'3 5.3
2018-Feb-17 08:30N 40°43' W 073°58'2 4.8
2018-Feb-17 08:00N 40°41' W 074°01'3 5.8
2018-Feb-17 07:30N 40°39' W 074°03'3 6.4
2018-Feb-17 07:00N 40°39' W 074°07'3 6.4
2018-Feb-17 06:30N 40°38' W 074°12'3 5.5
2018-Feb-17 06:00N 40°36' W 074°12'3 5.2
2018-Feb-17 05:30N 40°33' W 074°14'1 2.4
2018-Feb-17 05:00N 40°33' W 074°15'0 0.0
2018-Feb-16 18:41N 40°33' W 074°15'0 0.0
2018-Feb-16 18:11N 40°33' W 074°15'0 0.0
2018-Feb-16 17:41N 40°33' W 074°15'0 0.0
2018-Feb-16 15:38N 40°33' W 074°15'0 0.0
2018-Feb-16 15:08N 40°33' W 074°15'0 0.1
2018-Feb-16 15:00N 40°33' W 074°15'1 1.3
2018-Feb-16 14:27N 40°33' W 074°15'3 6.9
2018-Feb-16 14:00N 40°36' W 074°12'3 6.0
2018-Feb-16 13:30N 40°39' W 074°11'4 7.1
2018-Feb-16 12:59N 40°39' W 074°07'0 0.3
2018-Feb-16 12:29N 40°39' W 074°07'0 0.0
2018-Feb-16 11:59N 40°39' W 074°07'0 0.0
2018-Feb-16 11:29N 40°39' W 074°07'0 0.0
2018-Feb-16 10:59N 40°39' W 074°07'0 0.0
2018-Feb-16 10:29N 40°39' W 074°07'0 0.0
2018-Feb-16 09:59N 40°39' W 074°07'0 0.0
2018-Feb-16 09:29N 40°39' W 074°07'0 0.0
2018-Feb-16 08:59N 40°39' W 074°07'0 0.0
2018-Feb-16 08:29N 40°39' W 074°07'0 0.0
2018-Feb-16 07:59N 40°39' W 074°07'0 0.0
2018-Feb-16 07:29N 40°39' W 074°07'0 0.0
2018-Feb-16 06:59N 40°39' W 074°07'0 0.0
2018-Feb-16 06:29N 40°39' W 074°07'0 0.0
2018-Feb-16 05:59N 40°39' W 074°07'0 0.0
2018-Feb-16 05:29N 40°39' W 074°07'0 0.0
2018-Feb-16 04:53N 40°39' W 074°07'0 0.0
2018-Feb-16 04:29N 40°39' W 074°07'0 0.0
2018-Feb-16 03:59N 40°39' W 074°07'0 0.0
2018-Feb-16 03:29N 40°39' W 074°07'0 0.0
2018-Feb-16 02:59N 40°39' W 074°07'0 0.0
2018-Feb-16 02:29N 40°39' W 074°07'0 0.0
2018-Feb-16 01:59N 40°39' W 074°07'0 0.0
2018-Feb-16 01:29N 40°39' W 074°07'0 0.0
2018-Feb-16 00:59N 40°39' W 074°07'0 0.0
2018-Feb-16 00:29N 40°39' W 074°07'0 0.0
2018-Feb-15 23:59N 40°39' W 074°07'0 0.0
2018-Feb-15 23:29N 40°39' W 074°07'0 0.0
2018-Feb-15 22:59N 40°39' W 074°07'0 0.0
2018-Feb-15 22:29N 40°39' W 074°07'0 0.0
2018-Feb-15 21:59N 40°39' W 074°07'0 0.0
2018-Feb-15 21:29N 40°39' W 074°07'0 0.0
2018-Feb-15 20:59N 40°39' W 074°07'1 1.8
2018-Feb-15 20:30N 40°39' W 074°08'2 4.2
2018-Feb-15 19:59N 40°39' W 074°05'3 6.5
2018-Feb-15 19:30N 40°40' W 074°01'0 0.3
2018-Feb-15 19:01N 40°40' W 074°01'3 5.0
2018-Feb-15 18:30N 40°38' W 074°03'3 5.3
2018-Feb-15 18:00N 40°39' W 074°07'0 0.1
2018-Feb-15 17:30N 40°39' W 074°07'0 0.0
2018-Feb-15 17:00N 40°39' W 074°07'0 0.0
2018-Feb-15 16:30N 40°39' W 074°07'0 0.0
2018-Feb-15 16:00N 40°39' W 074°07'0 0.0
2018-Feb-15 15:30N 40°39' W 074°07'0 0.0
2018-Feb-15 15:00N 40°39' W 074°07'0 0.0
2018-Feb-15 14:30N 40°39' W 074°07'0 0.0
2018-Feb-15 13:59N 40°39' W 074°07'0 0.0
2018-Feb-15 13:29N 40°39' W 074°07'0 0.0
2018-Feb-15 12:59N 40°39' W 074°07'0 0.0
2018-Feb-15 12:29N 40°39' W 074°07'0 0.0
2018-Feb-15 11:59N 40°39' W 074°07'0 0.0
2018-Feb-15 11:29N 40°39' W 074°07'0 0.0
2018-Feb-15 10:59N 40°39' W 074°07'0 0.0
2018-Feb-15 10:26N 40°39' W 074°07'0 0.0
2018-Feb-15 09:59N 40°39' W 074°07'0 0.0
2018-Feb-15 09:29N 40°39' W 074°07'0 0.0
2018-Feb-15 08:59N 40°39' W 074°07'0 0.0
2018-Feb-15 08:29N 40°39' W 074°07'0 0.0
2018-Feb-15 07:59N 40°39' W 074°07'0 0.0
2018-Feb-15 07:26N 40°39' W 074°07'0 0.0
2018-Feb-15 06:59N 40°39' W 074°07'0 0.0
2018-Feb-15 06:29N 40°39' W 074°07'0 0.0
2018-Feb-15 05:59N 40°39' W 074°07'0 0.0
2018-Feb-15 05:29N 40°39' W 074°07'0 0.0
2018-Feb-15 04:59N 40°39' W 074°07'0 0.0
2018-Feb-15 04:29N 40°39' W 074°07'0 0.0
2018-Feb-15 03:56N 40°39' W 074°07'0 0.0
2018-Feb-15 03:29N 40°39' W 074°07'0 0.0
2018-Feb-15 02:59N 40°39' W 074°07'0 0.0
2018-Feb-15 02:29N 40°39' W 074°07'0 0.0
2018-Feb-15 01:59N 40°39' W 074°07'0 0.0
2018-Feb-15 01:29N 40°39' W 074°07'0 0.0
2018-Feb-15 00:59N 40°39' W 074°07'1 1.4
2018-Feb-15 00:29N 40°39' W 074°06'1 2.5
2018-Feb-15 00:00N 40°39' W 074°04'0 0.8
2018-Feb-14 23:30N 40°39' W 074°04'1 2.3
2018-Feb-14 23:00N 40°38' W 074°03'2 3.8
2018-Feb-14 22:30N 40°39' W 074°02'2 4.8
2018-Feb-14 22:00N 40°42' W 074°00'3 6.1
2018-Feb-14 21:30N 40°44' W 073°58'4 7.1
2018-Feb-14 21:00N 40°47' W 073°55'4 8.1
2018-Feb-14 20:30N 40°48' W 073°50'4 8.8
2018-Feb-14 19:59N 40°51' W 073°46'510.8
2018-Feb-14 19:30N 40°54' W 073°40'4711.1
2018-Feb-14 15:15N 41°05' W 072°40'612.0
2018-Feb-14 14:46N 41°06' W 072°32'312.5
2018-Feb-14 14:30N 41°08' W 072°28'613.1
2018-Feb-14 14:00N 41°10' W 072°20'612.9
2018-Feb-14 13:30N 41°12' W 072°12'812.8
2018-Feb-14 12:55N 41°14' W 072°02'3510.9
2018-Feb-14 09:43N 41°30' W 071°21'310.1
2018-Feb-14 09:28N 41°32' W 071°20'511.6
2018-Feb-14 09:00N 41°37' W 071°18'511.0
2018-Feb-14 08:30N 41°43' W 071°20'5 9.3
2018-Feb-14 08:00N 41°47' W 071°22'2 3.0
2018-Feb-14 07:30N 41°48' W 071°24'0 0.0
2018-Feb-14 07:00N 41°48' W 071°24'0 0.0
2018-Feb-14 06:30N 41°48' W 071°24'0 0.0
2018-Feb-14 05:57N 41°48' W 071°24'0 0.0
2018-Feb-14 05:27N 41°48' W 071°24'0 0.0
2018-Feb-14 04:57N 41°48' W 071°24'0 0.0
2018-Feb-14 04:27N 41°48' W 071°24'  

Dump ship's entire track history